createdAt,value
2019-01-19T00:00:06.683Z,-438.10
2019-01-19T00:01:06.837Z,-434.30
2019-01-19T00:02:07.094Z,-435.48
2019-01-19T00:03:07.163Z,-434.74
2019-01-19T00:04:07.310Z,-436.17
2019-01-19T00:05:10.543Z,-436.32
2019-01-19T00:06:07.655Z,-434.02
2019-01-19T00:07:07.815Z,-433.96
2019-01-19T00:08:07.984Z,-432.36
2019-01-19T00:09:08.135Z,-430.49
2019-01-19T00:10:08.363Z,-433.26
2019-01-19T00:11:08.455Z,-435.96
2019-01-19T00:12:08.608Z,-434.50
2019-01-19T00:13:08.797Z,-434.01
2019-01-19T00:14:08.945Z,-434.52
2019-01-19T00:15:09.104Z,-434.79
2019-01-19T00:16:09.298Z,-436.22
2019-01-19T00:17:09.424Z,-433.99
2019-01-19T00:18:09.644Z,-435.70
2019-01-19T00:19:09.728Z,-435.78
2019-01-19T00:20:09.894Z,-434.49
2019-01-19T00:21:10.074Z,-434.20
2019-01-19T00:22:10.211Z,-436.64
2019-01-19T00:23:10.390Z,-435.56
2019-01-19T00:24:10.521Z,-435.00
2019-01-19T00:25:10.708Z,-434.01
2019-01-19T00:26:10.919Z,-433.82
2019-01-19T00:27:11.065Z,-432.39
2019-01-19T00:28:11.194Z,-435.69
2019-01-19T00:29:11.321Z,-436.35
2019-01-19T00:30:11.515Z,-434.12
2019-01-19T00:31:11.674Z,-433.66
2019-01-19T00:32:11.835Z,-432.76
2019-01-19T00:33:12.000Z,-431.48
2019-01-19T00:34:12.149Z,-435.61
2019-01-19T00:35:17.835Z,-432.90
2019-01-19T00:36:13.474Z,-430.65
2019-01-19T00:37:12.641Z,-435.36
2019-01-19T00:38:12.791Z,-435.73
2019-01-19T00:39:12.922Z,-435.04
2019-01-19T00:40:13.081Z,-433.36
2019-01-19T00:41:13.277Z,-434.44
2019-01-19T00:42:13.677Z,-436.26
2019-01-19T00:43:13.680Z,-434.38
2019-01-19T00:44:13.736Z,-434.04
2019-01-19T00:45:13.874Z,-434.60
2019-01-19T00:46:14.084Z,-432.30
2019-01-19T00:47:14.227Z,-433.56
2019-01-19T00:48:14.396Z,-434.46
2019-01-19T00:49:14.531Z,-435.11
2019-01-19T00:50:14.700Z,-434.80
2019-01-19T00:51:14.921Z,-435.15
2019-01-19T00:52:15.020Z,-435.04
2019-01-19T00:53:15.186Z,-437.68
2019-01-19T00:54:15.332Z,-436.36
2019-01-19T00:55:15.491Z,-435.11
2019-01-19T00:56:15.671Z,-436.40
2019-01-19T00:57:15.801Z,-435.02
2019-01-19T00:58:15.988Z,-434.24
2019-01-19T00:59:16.208Z,-434.72
2019-01-19T01:00:16.313Z,-435.14
2019-01-19T01:01:16.502Z,-434.53
2019-01-19T01:02:16.625Z,-435.35
2019-01-19T01:03:16.783Z,-431.69
2019-01-19T01:04:16.959Z,-433.02
2019-01-19T01:05:17.125Z,-433.36
2019-01-19T01:06:17.326Z,-433.05
2019-01-19T01:07:17.451Z,-432.55
2019-01-19T01:08:17.682Z,-433.72
2019-01-19T01:09:17.790Z,-435.20
2019-01-19T01:10:17.950Z,-431.61
2019-01-19T01:11:18.321Z,-431.45
2019-01-19T01:12:18.273Z,-432.79
2019-01-19T01:13:18.419Z,-434.22
2019-01-19T01:14:18.596Z,-433.47
2019-01-19T01:15:18.795Z,-433.17
2019-01-19T01:16:19.107Z,-431.64
2019-01-19T01:17:19.099Z,-433.68
2019-01-19T01:18:19.255Z,-434.44
2019-01-19T01:19:19.433Z,-432.21
2019-01-19T01:20:19.585Z,-431.74
2019-01-19T01:21:19.773Z,-430.29
2019-01-19T01:22:19.920Z,-434.11
2019-01-19T01:23:20.071Z,-431.02
2019-01-19T01:24:20.266Z,-434.50
2019-01-19T01:25:20.372Z,-435.55
2019-01-19T01:26:20.556Z,-433.10
2019-01-19T01:27:20.711Z,-435.42
2019-01-19T01:28:20.860Z,-436.56
2019-01-19T01:29:21.037Z,-434.65
2019-01-19T01:30:21.164Z,-434.57
2019-01-19T01:31:21.360Z,-430.87
2019-01-19T01:32:21.588Z,-434.72
2019-01-19T01:33:21.653Z,-432.35
2019-01-19T01:34:21.838Z,-434.33
2019-01-19T01:35:21.979Z,-431.25
2019-01-19T01:36:22.151Z,-432.70
2019-01-19T01:37:22.332Z,-432.90
2019-01-19T01:38:22.472Z,-433.95
2019-01-19T01:39:22.653Z,-430.75
2019-01-19T01:40:22.811Z,-432.92
2019-01-19T01:41:23.015Z,-432.04
2019-01-19T01:42:23.133Z,-432.95
2019-01-19T01:43:23.275Z,-429.33
2019-01-19T01:44:23.456Z,-456.38
2019-01-19T01:45:23.593Z,-459.26
2019-01-19T01:46:23.773Z,-459.00
2019-01-19T01:47:23.918Z,-459.67
2019-01-19T01:48:24.086Z,-459.06
2019-01-19T01:49:24.376Z,-458.92
2019-01-19T01:50:24.414Z,-456.62
2019-01-19T01:51:24.603Z,-458.63
2019-01-19T01:52:24.724Z,-457.83
2019-01-19T01:53:24.893Z,-457.08
2019-01-19T01:54:25.076Z,-458.35
2019-01-19T01:55:25.283Z,-458.74
2019-01-19T01:56:25.405Z,-459.37
2019-01-19T01:57:25.680Z,-458.46
2019-01-19T01:58:25.701Z,-458.76
2019-01-19T01:59:25.868Z,-456.38
2019-01-19T02:00:26.019Z,-460.10
2019-01-19T02:01:26.196Z,-462.82
2019-01-19T02:02:26.368Z,-462.20
2019-01-19T02:03:26.484Z,-460.73
2019-01-19T02:04:26.682Z,-461.05
2019-01-19T02:05:26.892Z,-457.91
2019-01-19T02:06:26.997Z,-459.79
2019-01-19T02:07:27.158Z,-458.31
2019-01-19T02:08:27.310Z,-461.76
2019-01-19T02:09:27.473Z,-457.65
2019-01-19T02:10:27.626Z,-458.88
2019-01-19T02:11:27.807Z,-458.79
2019-01-19T02:12:27.981Z,-461.01
2019-01-19T02:13:28.156Z,-460.92
2019-01-19T02:14:28.298Z,-458.88
2019-01-19T02:15:28.452Z,-460.70
2019-01-19T02:16:28.627Z,-460.54
2019-01-19T02:17:28.819Z,-464.30
2019-01-19T02:18:28.972Z,-461.53
2019-01-19T02:19:29.147Z,-461.26
2019-01-19T02:20:29.287Z,-459.74
2019-01-19T02:21:29.450Z,-459.85
2019-01-19T02:22:29.986Z,-459.50
2019-01-19T02:23:29.806Z,-459.51
2019-01-19T02:24:29.970Z,-458.65
2019-01-19T02:25:30.092Z,-459.36
2019-01-19T02:26:30.255Z,-464.08
2019-01-19T02:27:30.448Z,-460.10
2019-01-19T02:28:30.594Z,-460.59
2019-01-19T02:29:30.764Z,-458.12
2019-01-19T02:30:31.023Z,-459.15
2019-01-19T02:31:31.070Z,-459.02
2019-01-19T02:32:31.294Z,-460.66
2019-01-19T02:33:31.428Z,-459.33
2019-01-19T02:34:31.587Z,-456.42
2019-01-19T02:35:31.725Z,-457.79
2019-01-19T02:36:31.878Z,-460.58
2019-01-19T02:37:32.056Z,-459.24
2019-01-19T02:38:32.292Z,-457.62
2019-01-19T02:39:32.383Z,-457.09
2019-01-19T02:40:32.525Z,-457.72
2019-01-19T02:41:32.686Z,-456.74
2019-01-19T02:42:32.845Z,-456.89
2019-01-19T02:43:33.013Z,-455.95
2019-01-19T02:44:33.197Z,-457.50
2019-01-19T02:45:33.346Z,-457.53
2019-01-19T02:46:33.533Z,-456.35
2019-01-19T02:47:33.646Z,-455.97
2019-01-19T02:48:33.807Z,-458.95
2019-01-19T02:49:33.992Z,-455.74
2019-01-19T02:50:34.139Z,-458.99
2019-01-19T02:51:34.291Z,-457.35
2019-01-19T02:52:34.479Z,-457.48
2019-01-19T02:53:34.762Z,-457.83
2019-01-19T02:54:34.830Z,-456.56
2019-01-19T02:55:34.989Z,-455.30
2019-01-19T02:56:35.117Z,-454.94
2019-01-19T02:57:35.314Z,-457.44
2019-01-19T02:58:35.445Z,-456.38
2019-01-19T02:59:35.618Z,-457.37
2019-01-19T03:00:35.761Z,-457.53
2019-01-19T03:01:35.932Z,-456.80
2019-01-19T03:02:36.107Z,-457.67
2019-01-19T03:03:36.411Z,-455.85
2019-01-19T03:04:36.404Z,-456.94
2019-01-19T03:05:36.555Z,-456.04
2019-01-19T03:06:36.717Z,-460.85
2019-01-19T03:07:36.897Z,-458.42
2019-01-19T03:08:37.054Z,-458.32
2019-01-19T03:09:37.236Z,-458.95
2019-01-19T03:10:37.356Z,-460.77
2019-01-19T03:11:37.599Z,-458.48
2019-01-19T03:12:37.707Z,-455.51
2019-01-19T03:13:37.856Z,-455.80
2019-01-19T03:14:38.025Z,-455.02
2019-01-19T03:15:38.161Z,-457.13
2019-01-19T03:16:38.321Z,-457.51
2019-01-19T03:17:38.516Z,-459.28
2019-01-19T03:18:38.668Z,-457.79
2019-01-19T03:19:38.862Z,-457.54
2019-01-19T03:20:38.986Z,-459.95
2019-01-19T03:21:39.139Z,-459.00
2019-01-19T03:22:39.326Z,-456.63
2019-01-19T03:23:39.479Z,-458.65
2019-01-19T03:24:39.658Z,-459.96
2019-01-19T03:25:39.819Z,-458.52
2019-01-19T03:26:39.982Z,-458.77
2019-01-19T03:27:40.204Z,-458.75
2019-01-19T03:28:40.333Z,-459.78
2019-01-19T03:29:40.480Z,-458.80
2019-01-19T03:30:40.651Z,-459.15
2019-01-19T03:31:40.795Z,-459.93
2019-01-19T03:32:40.977Z,-461.78
2019-01-19T03:33:41.098Z,-458.78
2019-01-19T03:34:41.290Z,-461.68
2019-01-19T03:35:41.468Z,-459.58
2019-01-19T03:36:41.720Z,-460.96
2019-01-19T03:37:41.775Z,-460.35
2019-01-19T03:38:41.905Z,-459.72
2019-01-19T03:39:42.091Z,-459.19
2019-01-19T03:40:42.255Z,-460.20
2019-01-19T03:41:42.400Z,-461.20
2019-01-19T03:42:42.564Z,-460.74
2019-01-19T03:43:42.717Z,-460.61
2019-01-19T03:44:42.971Z,-459.56
2019-01-19T03:45:43.073Z,-460.54
2019-01-19T03:46:43.204Z,-459.48
2019-01-19T03:47:43.375Z,-459.03
2019-01-19T03:48:43.515Z,-460.68
2019-01-19T03:49:43.671Z,-458.38
2019-01-19T03:50:43.884Z,-457.57
2019-01-19T03:51:44.010Z,-457.31
2019-01-19T03:52:44.253Z,-459.95
2019-01-19T03:53:44.312Z,-459.83
2019-01-19T03:54:44.465Z,-458.34
2019-01-19T03:55:44.676Z,-459.87
2019-01-19T03:56:44.818Z,-458.32
2019-01-19T03:57:44.986Z,-458.97
2019-01-19T03:58:45.368Z,-459.27
2019-01-19T03:59:45.307Z,-455.70
2019-01-19T04:00:45.509Z,-454.67
2019-01-19T04:01:45.598Z,-458.56
2019-01-19T04:02:45.795Z,-455.30
2019-01-19T04:03:45.955Z,-456.79
2019-01-19T04:04:46.100Z,-456.42
2019-01-19T04:05:46.337Z,-457.49
2019-01-19T04:06:46.408Z,-457.05
2019-01-19T04:07:46.608Z,-456.64
2019-01-19T04:08:46.783Z,-455.79
2019-01-19T04:09:47.538Z,-455.70
2019-01-19T04:10:47.407Z,-453.63
2019-01-19T04:11:47.225Z,-453.50
2019-01-19T04:12:47.405Z,-453.77
2019-01-19T04:13:47.570Z,-455.70
2019-01-19T04:14:47.734Z,-455.75
2019-01-19T04:15:47.919Z,-454.03
2019-01-19T04:16:48.066Z,-454.11
2019-01-19T04:17:48.297Z,-455.69
2019-01-19T04:18:48.370Z,-453.51
2019-01-19T04:19:48.532Z,-452.92
2019-01-19T04:20:48.709Z,-454.43
2019-01-19T04:21:48.867Z,-453.43
2019-01-19T04:22:49.012Z,-454.14
2019-01-19T04:23:49.192Z,-453.79
2019-01-19T04:24:49.380Z,-453.37
2019-01-19T04:25:49.627Z,-453.60
2019-01-19T04:26:49.693Z,-453.91
2019-01-19T04:27:49.835Z,-449.12
2019-01-19T04:28:50.028Z,-448.48
2019-01-19T04:29:50.192Z,-448.59
2019-01-19T04:30:50.381Z,-450.84
2019-01-19T04:31:50.543Z,-450.19
2019-01-19T04:32:50.725Z,-449.20
2019-01-19T04:33:50.881Z,-449.75
2019-01-19T04:34:50.987Z,-449.43
2019-01-19T04:35:51.172Z,-452.86
2019-01-19T04:36:51.331Z,-451.70
2019-01-19T04:37:51.461Z,-453.49
2019-01-19T04:38:51.648Z,-454.03
2019-01-19T04:39:51.779Z,-455.42
2019-01-19T04:40:51.990Z,-455.02
2019-01-19T04:41:52.169Z,-454.06
2019-01-19T04:42:52.441Z,-455.10
2019-01-19T04:43:52.467Z,-454.01
2019-01-19T04:44:52.590Z,-457.51
2019-01-19T04:45:52.786Z,-456.19
2019-01-19T04:46:52.956Z,-457.06
2019-01-19T04:47:53.105Z,-456.28
2019-01-19T04:48:53.281Z,-455.29
2019-01-19T04:49:53.446Z,-454.90
2019-01-19T04:50:53.690Z,-454.26
2019-01-19T04:51:53.817Z,-453.80
2019-01-19T04:52:53.909Z,-455.90
2019-01-19T04:53:55.606Z,-453.84
2019-01-19T04:54:54.232Z,-454.12
2019-01-19T04:55:54.393Z,-453.21
2019-01-19T04:56:54.576Z,-447.64
2019-01-19T04:57:54.723Z,-448.60
2019-01-19T04:58:55.041Z,-448.60
2019-01-19T04:59:55.045Z,-449.17
2019-01-19T05:00:55.208Z,-450.60
2019-01-19T05:01:55.391Z,-453.82
2019-01-19T05:02:55.529Z,-455.29
2019-01-19T05:03:55.712Z,-453.96
2019-01-19T05:04:55.851Z,-451.97
2019-01-19T05:05:56.026Z,-453.62
2019-01-19T05:06:56.244Z,-453.33
2019-01-19T05:07:57.037Z,-452.56
2019-01-19T05:08:56.501Z,-452.78
2019-01-19T05:09:56.644Z,-451.38
2019-01-19T05:10:57.133Z,-449.66
2019-01-19T05:11:56.977Z,-450.21
2019-01-19T05:12:57.122Z,-450.22
2019-01-19T05:13:57.304Z,-448.81
2019-01-19T05:14:57.513Z,-446.87
2019-01-19T05:15:57.606Z,-422.47
2019-01-19T05:16:57.764Z,-443.67
2019-01-19T05:17:57.933Z,-441.34
2019-01-19T05:18:58.092Z,-440.01
2019-01-19T05:19:58.252Z,-443.43
2019-01-19T05:20:58.428Z,-443.52
2019-01-19T05:21:58.576Z,-441.34
2019-01-19T05:22:58.772Z,-446.54
2019-01-19T05:23:58.993Z,-445.73
2019-01-19T05:24:59.058Z,-448.72
2019-01-19T05:25:59.234Z,-448.18
2019-01-19T05:26:59.378Z,-449.80
2019-01-19T05:27:59.547Z,-445.34
2019-01-19T05:28:59.720Z,-444.70
2019-01-19T05:29:59.846Z,-444.54
2019-01-19T05:31:00.039Z,-443.22
2019-01-19T05:32:00.312Z,-444.52
2019-01-19T05:33:00.351Z,-444.52
2019-01-19T05:34:00.522Z,-447.00
2019-01-19T05:35:00.686Z,-446.65
2019-01-19T05:36:00.877Z,-448.04
2019-01-19T05:37:01.046Z,-450.91
2019-01-19T05:38:01.946Z,-445.33
2019-01-19T05:39:01.368Z,-446.41
2019-01-19T05:40:01.601Z,-443.27
2019-01-19T05:41:01.660Z,-444.23
2019-01-19T05:42:01.857Z,-443.53
2019-01-19T05:43:01.994Z,-443.26
2019-01-19T05:44:02.163Z,-442.84
2019-01-19T05:45:02.313Z,-440.15
2019-01-19T05:46:02.468Z,-445.96
2019-01-19T05:47:02.647Z,-442.21
2019-01-19T05:48:02.857Z,-445.40
2019-01-19T05:49:02.980Z,-446.59
2019-01-19T05:50:03.120Z,-444.55
2019-01-19T05:51:03.283Z,-446.67
2019-01-19T05:52:03.439Z,-447.07
2019-01-19T05:53:03.614Z,-445.95
2019-01-19T05:54:03.767Z,-448.06
2019-01-19T05:55:03.918Z,-444.40
2019-01-19T05:56:04.118Z,-445.56
2019-01-19T05:57:04.317Z,-444.78
2019-01-19T05:58:04.467Z,-443.29
2019-01-19T05:59:04.618Z,-445.88
2019-01-19T06:00:04.778Z,-443.18
2019-01-19T06:01:04.940Z,-445.50
2019-01-19T06:02:05.119Z,-444.09
2019-01-19T06:03:05.275Z,-446.55
2019-01-19T06:04:05.424Z,-447.69
2019-01-19T06:05:05.690Z,-449.57
2019-01-19T06:06:05.741Z,-449.33
2019-01-19T06:07:05.920Z,-448.73
2019-01-19T06:08:06.065Z,-448.40
2019-01-19T06:09:06.238Z,-448.40
2019-01-19T06:10:06.383Z,-446.37
2019-01-19T06:11:06.559Z,-442.28
2019-01-19T06:12:06.727Z,-440.51
2019-01-19T06:13:07.001Z,-439.82
2019-01-19T06:14:07.033Z,-440.07
2019-01-19T06:15:07.187Z,-440.03
2019-01-19T06:16:07.354Z,-436.73
2019-01-19T06:17:07.520Z,-436.09
2019-01-19T06:18:07.668Z,-441.55
2019-01-19T06:19:07.840Z,-439.01
2019-01-19T06:20:07.991Z,-443.69
2019-01-19T06:21:08.190Z,-441.50
2019-01-19T06:22:08.317Z,-442.98
2019-01-19T06:23:08.461Z,-438.92
2019-01-19T06:24:08.660Z,-441.23
2019-01-19T06:25:08.769Z,-436.79
2019-01-19T06:26:08.961Z,-437.53
2019-01-19T06:27:09.120Z,-438.20
2019-01-19T06:28:09.263Z,-441.01
2019-01-19T06:29:09.465Z,-437.58
2019-01-19T06:30:09.548Z,-440.28
2019-01-19T06:31:09.756Z,-441.41
2019-01-19T06:32:09.924Z,-441.61
2019-01-19T06:33:10.082Z,-440.97
2019-01-19T06:34:10.235Z,-442.47
2019-01-19T06:35:10.418Z,-440.85
2019-01-19T06:36:10.589Z,-442.03
2019-01-19T06:37:10.758Z,-441.55
2019-01-19T06:38:11.004Z,-440.89
2019-01-19T06:39:11.097Z,-440.95
2019-01-19T06:40:11.277Z,-442.26
2019-01-19T06:41:11.417Z,-443.86
2019-01-19T06:42:11.613Z,-439.68
2019-01-19T06:43:11.776Z,-440.28
2019-01-19T06:44:11.950Z,-441.81
2019-01-19T06:45:12.114Z,-442.59
2019-01-19T06:46:12.392Z,-443.10
2019-01-19T06:47:12.438Z,-441.50
2019-01-19T06:48:12.596Z,-439.65
2019-01-19T06:49:12.760Z,-444.10
2019-01-19T06:50:12.940Z,-445.47
2019-01-19T06:51:13.107Z,-443.64
2019-01-19T06:52:13.255Z,-445.02
2019-01-19T06:53:13.400Z,-445.37
2019-01-19T06:54:13.655Z,-446.17
2019-01-19T06:55:13.742Z,-446.48
2019-01-19T06:56:13.902Z,-445.41
2019-01-19T06:57:14.059Z,-444.06
2019-01-19T06:58:14.198Z,-445.70
2019-01-19T06:59:17.516Z,-443.91
2019-01-19T07:00:14.551Z,-443.27
2019-01-19T07:01:14.709Z,-441.55
2019-01-19T07:02:14.927Z,-441.83
2019-01-19T07:03:15.000Z,-442.17
2019-01-19T07:04:15.153Z,-442.22
2019-01-19T07:05:15.340Z,-442.73
2019-01-19T07:06:15.503Z,-445.00
2019-01-19T07:07:15.672Z,-440.94
2019-01-19T07:08:15.807Z,-444.74
2019-01-19T07:09:15.971Z,-442.52
2019-01-19T07:10:16.167Z,-442.25
2019-01-19T07:11:16.388Z,-440.77
2019-01-19T07:12:16.483Z,-439.21
2019-01-19T07:13:16.627Z,-442.04
2019-01-19T07:14:16.786Z,-441.14
2019-01-19T07:15:17.175Z,-440.58
2019-01-19T07:16:17.124Z,-438.57
2019-01-19T07:17:17.301Z,-439.12
2019-01-19T07:18:17.478Z,-439.58
2019-01-19T07:19:17.746Z,-439.49
2019-01-19T07:20:17.775Z,-439.25
2019-01-19T07:21:17.941Z,-440.08
2019-01-19T07:22:18.120Z,-440.16
2019-01-19T07:23:18.259Z,-441.36
2019-01-19T07:24:18.419Z,-440.81
2019-01-19T07:25:18.592Z,-440.52
2019-01-19T07:26:18.745Z,-440.11
2019-01-19T07:27:19.042Z,-442.66
2019-01-19T07:28:19.071Z,-440.17
2019-01-19T07:29:19.231Z,-438.61
2019-01-19T07:30:19.413Z,-436.36
2019-01-19T07:31:19.551Z,-437.27
2019-01-19T07:32:19.714Z,-439.62
2019-01-19T07:33:19.900Z,-442.17
2019-01-19T07:34:20.062Z,-438.70
2019-01-19T07:35:20.284Z,-440.90
2019-01-19T07:36:20.361Z,-441.00
2019-01-19T07:37:20.512Z,-441.31
2019-01-19T07:38:20.701Z,-443.38
2019-01-19T07:39:20.905Z,-440.90
2019-01-19T07:40:21.055Z,-440.10
2019-01-19T07:41:21.202Z,-440.43
2019-01-19T07:42:21.356Z,-441.15
2019-01-19T07:43:21.551Z,-440.80
2019-01-19T07:44:21.708Z,-440.97
2019-01-19T07:45:21.873Z,-441.99
2019-01-19T07:46:22.021Z,-443.76
2019-01-19T07:47:22.180Z,-443.84
2019-01-19T07:48:22.359Z,-441.44
2019-01-19T07:49:22.507Z,-441.53
2019-01-19T07:50:22.683Z,-443.95
2019-01-19T07:51:22.907Z,-445.17
2019-01-19T07:52:23.105Z,-444.55
2019-01-19T07:53:23.188Z,-442.37
2019-01-19T07:54:23.316Z,-442.13
2019-01-19T07:55:23.508Z,-443.06
2019-01-19T07:56:24.846Z,-442.68
2019-01-19T07:57:30.964Z,-441.87
2019-01-19T07:58:24.997Z,-443.01
2019-01-19T07:59:24.138Z,-444.77
2019-01-19T08:00:24.468Z,-444.14
2019-01-19T08:01:24.457Z,-443.74
2019-01-19T08:02:24.632Z,-443.97
2019-01-19T08:03:24.801Z,-442.53
2019-01-19T08:04:24.952Z,-443.04
2019-01-19T08:05:25.120Z,-441.04
2019-01-19T08:06:25.259Z,-443.88
2019-01-19T08:07:25.452Z,-442.70
2019-01-19T08:08:26.884Z,-442.82
2019-01-19T08:09:25.745Z,-443.83
2019-01-19T08:10:25.928Z,-442.70
2019-01-19T08:11:26.054Z,-443.45
2019-01-19T08:12:26.240Z,-443.27
2019-01-19T08:13:26.409Z,-421.62
2019-01-19T08:14:26.555Z,-441.11
2019-01-19T08:15:26.745Z,-444.69
2019-01-19T08:16:27.106Z,-443.62
2019-01-19T08:17:26.931Z,-444.14
2019-01-19T08:18:27.125Z,-442.54
2019-01-19T08:19:27.312Z,-441.89
2019-01-19T08:20:27.427Z,-442.78
2019-01-19T08:21:27.575Z,-443.42
2019-01-19T08:22:27.720Z,-442.74
2019-01-19T08:23:27.910Z,-443.70
2019-01-19T08:24:28.095Z,-444.00
2019-01-19T08:25:28.331Z,-442.76
2019-01-19T08:26:28.419Z,-443.06
2019-01-19T08:27:28.581Z,-443.62
2019-01-19T08:28:28.771Z,-442.73
2019-01-19T08:29:28.915Z,-442.51
2019-01-19T08:30:29.114Z,-443.78
2019-01-19T08:31:29.236Z,-441.53
2019-01-19T08:32:29.428Z,-442.60
2019-01-19T08:33:29.681Z,-442.28
2019-01-19T08:34:29.716Z,-442.62
2019-01-19T08:35:29.891Z,-442.66
2019-01-19T08:36:30.036Z,-443.97
2019-01-19T08:37:30.186Z,-443.31
2019-01-19T08:38:30.352Z,-439.23
2019-01-19T08:39:30.513Z,-441.78
2019-01-19T08:40:30.689Z,-440.96
2019-01-19T08:41:30.944Z,-441.37
2019-01-19T08:42:30.978Z,-440.40
2019-01-19T08:43:31.171Z,-439.79
2019-01-19T08:44:31.341Z,-437.70
2019-01-19T08:45:31.494Z,-439.70
2019-01-19T08:46:31.670Z,-440.15
2019-01-19T08:47:31.837Z,-438.63
2019-01-19T08:48:32.009Z,-440.94
2019-01-19T08:49:32.169Z,-440.20
2019-01-19T08:50:32.298Z,-440.47
2019-01-19T08:51:32.489Z,-441.36
2019-01-19T08:52:32.636Z,-441.16
2019-01-19T08:53:32.821Z,-442.74
2019-01-19T08:54:33.184Z,-442.48
2019-01-19T08:55:33.120Z,-441.86
2019-01-19T08:56:33.288Z,-437.80
2019-01-19T08:57:33.517Z,-437.16
2019-01-19T08:58:33.600Z,-433.16
2019-01-19T08:59:33.760Z,-438.34
2019-01-19T09:00:33.904Z,-440.29
2019-01-19T09:01:34.095Z,-437.58
2019-01-19T09:02:34.258Z,-439.04
2019-01-19T09:03:34.442Z,-442.50
2019-01-19T09:04:34.559Z,-440.66
2019-01-19T09:05:34.765Z,-442.65
2019-01-19T09:06:34.995Z,-442.68
2019-01-19T09:07:35.053Z,-440.58
2019-01-19T09:08:35.247Z,-440.70
2019-01-19T09:09:35.374Z,-438.40
2019-01-19T09:10:35.535Z,-440.21
2019-01-19T09:11:35.696Z,-440.78
2019-01-19T09:12:35.875Z,-439.32
2019-01-19T09:13:36.055Z,-440.40
2019-01-19T09:14:36.314Z,-432.48
2019-01-19T09:15:36.347Z,-436.58
2019-01-19T09:16:39.616Z,-407.95
2019-01-19T09:17:37.684Z,-408.01
2019-01-19T09:18:36.859Z,-414.66
2019-01-19T09:19:36.998Z,-413.82
2019-01-19T09:20:37.159Z,-415.78
2019-01-19T09:21:37.342Z,-416.97
2019-01-19T09:22:37.521Z,-417.74
2019-01-19T09:23:37.654Z,-414.79
2019-01-19T09:24:37.793Z,-416.63
2019-01-19T09:25:37.952Z,-416.98
2019-01-19T09:26:38.145Z,-418.40
2019-01-19T09:27:38.269Z,-415.92
2019-01-19T09:28:38.453Z,-417.19
2019-01-19T09:29:38.594Z,-418.56
2019-01-19T09:30:38.792Z,-419.82
2019-01-19T09:31:38.915Z,-413.61
2019-01-19T09:32:39.063Z,-415.68
2019-01-19T09:33:39.239Z,-418.03
2019-01-19T09:34:39.381Z,-416.77
2019-01-19T09:35:39.559Z,-393.97
2019-01-19T09:36:39.743Z,-415.64
2019-01-19T09:37:40.976Z,-416.82
2019-01-19T09:38:40.100Z,-417.71
2019-01-19T09:39:40.255Z,-417.65
2019-01-19T09:40:40.372Z,-414.42
2019-01-19T09:41:40.572Z,-414.34
2019-01-19T09:42:40.691Z,-414.19
2019-01-19T09:43:40.897Z,-414.24
2019-01-19T09:44:41.037Z,-417.58
2019-01-19T09:45:41.217Z,-418.39
2019-01-19T09:46:41.372Z,-416.78
2019-01-19T09:47:41.625Z,-416.69
2019-01-19T09:48:41.674Z,-419.39
2019-01-19T09:49:41.805Z,-418.17
2019-01-19T09:50:41.982Z,-416.95
2019-01-19T09:51:42.183Z,-417.57
2019-01-19T09:52:42.318Z,-417.02
2019-01-19T09:53:42.472Z,-417.77
2019-01-19T09:54:42.651Z,-416.66
2019-01-19T09:55:42.926Z,-416.59
2019-01-19T09:56:42.994Z,-416.68
2019-01-19T09:57:43.135Z,-417.09
2019-01-19T09:58:43.294Z,-419.30
2019-01-19T09:59:43.475Z,-417.59
2019-01-19T10:00:45.771Z,-418.13
2019-01-19T10:01:43.809Z,-419.99
2019-01-19T10:02:43.949Z,-416.67
2019-01-19T10:03:44.172Z,-419.09
2019-01-19T10:04:44.263Z,-419.42
2019-01-19T10:05:44.404Z,-422.60
2019-01-19T10:06:44.576Z,-420.46
2019-01-19T10:07:48.431Z,-419.76
2019-01-19T10:08:44.913Z,-416.18
2019-01-19T10:09:45.143Z,-415.03
2019-01-19T10:10:45.222Z,-414.88
2019-01-19T10:11:45.476Z,-420.65
2019-01-19T10:12:45.514Z,-416.57
2019-01-19T10:13:45.690Z,-420.90
2019-01-19T10:14:45.873Z,-420.06
2019-01-19T10:15:46.018Z,-421.46
2019-01-19T10:16:46.208Z,-420.43
2019-01-19T10:17:46.352Z,-418.72
2019-01-19T10:18:46.488Z,-419.61
2019-01-19T10:19:46.708Z,-420.26
2019-01-19T10:20:46.889Z,-419.61
2019-01-19T10:21:47.026Z,-421.01
2019-01-19T10:22:47.143Z,-421.24
2019-01-19T10:23:47.334Z,-421.77
2019-01-19T10:24:47.503Z,-424.77
2019-01-19T10:25:47.629Z,-423.20
2019-01-19T10:26:47.807Z,-423.72
2019-01-19T10:27:47.957Z,-422.31
2019-01-19T10:28:48.232Z,-422.76
2019-01-19T10:29:48.284Z,-424.22
2019-01-19T10:30:48.428Z,-423.59
2019-01-19T10:31:48.614Z,-422.29
2019-01-19T10:32:48.993Z,-424.49
2019-01-19T10:33:48.910Z,-425.37
2019-01-19T10:34:49.071Z,-425.03
2019-01-19T10:35:49.238Z,-417.98
2019-01-19T10:36:49.505Z,-420.59
2019-01-19T10:37:55.743Z,-425.26
2019-01-19T10:38:50.710Z,-427.55
2019-01-19T10:39:49.870Z,-425.52
2019-01-19T10:40:50.033Z,-425.29
2019-01-19T10:41:50.223Z,-424.33
2019-01-19T10:42:50.353Z,-424.80
2019-01-19T10:43:50.517Z,-426.65
2019-01-19T10:44:50.740Z,-424.86
2019-01-19T10:45:50.800Z,-422.71
2019-01-19T10:46:51.007Z,-424.76
2019-01-19T10:47:51.146Z,-423.68
2019-01-19T10:48:51.303Z,-428.08
2019-01-19T10:49:51.477Z,-427.13
2019-01-19T10:50:51.626Z,-426.86
2019-01-19T10:51:51.777Z,-428.94
2019-01-19T10:52:52.002Z,-427.43
2019-01-19T10:53:52.121Z,-427.67
2019-01-19T10:54:52.305Z,-426.69
2019-01-19T10:55:53.199Z,-423.32
2019-01-19T10:56:52.646Z,-422.06
2019-01-19T10:57:52.771Z,-426.44
2019-01-19T10:58:52.946Z,-426.56
2019-01-19T10:59:53.166Z,-426.85
2019-01-19T11:00:53.286Z,-428.25
2019-01-19T11:01:53.467Z,-429.55
2019-01-19T11:02:53.606Z,-427.34
2019-01-19T11:03:53.780Z,-428.28
2019-01-19T11:04:53.967Z,-426.96
2019-01-19T11:05:54.102Z,-424.17
2019-01-19T11:06:54.263Z,-425.70
2019-01-19T11:07:54.455Z,-425.65
2019-01-19T11:08:54.573Z,-428.33
2019-01-19T11:09:54.902Z,-430.98
2019-01-19T11:10:54.904Z,-428.95
2019-01-19T11:11:55.064Z,-430.71
2019-01-19T11:12:55.232Z,-431.07
2019-01-19T11:13:55.545Z,-426.96
2019-01-19T11:14:55.584Z,-426.16
2019-01-19T11:15:55.717Z,-406.70
2019-01-19T11:16:55.879Z,-414.81
2019-01-19T11:17:56.129Z,-420.08
2019-01-19T11:18:56.170Z,-425.24
2019-01-19T11:19:56.366Z,-423.01
2019-01-19T11:20:56.511Z,-425.91
2019-01-19T11:21:56.670Z,-422.44
2019-01-19T11:22:56.858Z,-421.31
2019-01-19T11:23:56.994Z,-428.73
2019-01-19T11:24:57.222Z,-427.46
2019-01-19T11:25:57.352Z,-427.57
2019-01-19T11:26:57.477Z,-424.82
2019-01-19T11:27:57.641Z,-421.82
2019-01-19T11:28:57.785Z,-426.82
2019-01-19T11:29:57.960Z,-426.78
2019-01-19T11:30:58.087Z,-427.48
2019-01-19T11:31:58.276Z,-430.14
2019-01-19T11:32:58.482Z,-428.83
2019-01-19T11:33:58.650Z,-426.24
2019-01-19T11:34:58.834Z,-422.24
2019-01-19T11:35:58.970Z,-425.22
2019-01-19T11:36:59.092Z,-426.61
2019-01-19T11:37:59.292Z,-428.11
2019-01-19T11:38:59.427Z,-428.46
2019-01-19T11:39:59.607Z,-429.74
2019-01-19T11:40:59.749Z,-430.34
2019-01-19T11:41:59.914Z,-427.40
2019-01-19T11:43:00.207Z,-425.86
2019-01-19T11:44:00.250Z,-427.64
2019-01-19T11:45:00.427Z,-418.72
2019-01-19T11:46:00.570Z,-428.30
2019-01-19T11:47:00.716Z,-424.87
2019-01-19T11:48:00.916Z,-423.08
2019-01-19T11:49:01.060Z,-421.49
2019-01-19T11:50:01.240Z,-425.74
2019-01-19T11:51:01.492Z,-427.41
2019-01-19T11:52:01.533Z,-430.28
2019-01-19T11:53:01.795Z,-431.52
2019-01-19T11:54:01.867Z,-430.74
2019-01-19T11:55:02.038Z,-431.46
2019-01-19T11:56:02.190Z,-432.07
2019-01-19T11:57:02.333Z,-433.94
2019-01-19T11:58:02.517Z,-432.17
2019-01-19T11:59:02.746Z,-429.00
2019-01-19T12:00:02.875Z,-432.13
2019-01-19T12:01:03.014Z,-429.20
2019-01-19T12:02:03.181Z,-428.01
2019-01-19T12:03:03.356Z,-428.94
2019-01-19T12:04:03.485Z,-428.99
2019-01-19T12:05:03.666Z,-427.93
2019-01-19T12:06:03.846Z,-426.49
2019-01-19T12:07:04.046Z,-424.83